WALL/BPN METAR and TAF weather

Enter ICAO airport designator
Station Type Date Time Source
WALL METAR 2019/04/25 15:00 UTC NOAA

WALL 251500Z 20004KT 8000 SCT018 27/26 Q1009


Station Type Date Time Source
WALL Decoded METAR 2019/04/25 15:00 UTC NOAA

Station name not available
Apr 25, 2019 - 11:00 AM EDT / 2019.04.25 1500 UTC
Wind: from the SSW (200 degrees) at 5 MPH (4 KT):0
Visibility: 4 mile(s):0
Sky conditions: partly cloudy
Temperature: 80 F (27 C)
Dew Point: 78 F (26 C)
Relative Humidity: 94%
Pressure (altimeter): 29.80 in. Hg (1009 hPa)
ob: WALL 251500Z 20004KT 8000 SCT018 27/26 Q1009
cycle: 15

Station Type Date Time Source
WALL TAF 2019/04/25 18:00 UTC NOAA

TAF WALL 251700Z 2518/2624 29003KT 9999 SCT018
TEMPO 2522/2602 6000 -RA FEW017CB SCT018
BECMG 2602/2604 23005KT

Example: see airport list